Terminal Aerodrome Forecast
Issued by NWS

Home | Current Version | Previous Version | Text Only | Print | Product List | Glossary On
Versions: 1 2 3 4 5 6 7 8 9 10 11 12 13 14 15 16 17 18 19 20 21 22 23 24 25 26 27 28 29 30 31 32 33 34 35 36 37 38 39 40 41 42 43 44 45 46 47 48 49 50
000
FTUS44 KOHX 250800 AAA
TAFCKV
TAF AMD
KCKV 250803Z 2508/2606 25006KT P6SM FEW020 BKN035 OVC070
      TEMPO 2509/2513 2SM BR OVC020
     FM251500 22008KT P6SM SCT035
     FM260000 17005KT P6SM SKC=

USA.gov is the U.S. government's official web portal to all federal, state and local government web resources and services.